createdAt,value
2019-03-12T00:01:58.967Z,82.83
2019-03-12T00:04:39.915Z,94.77
2019-03-12T00:07:20.567Z,95.00
2019-03-12T00:10:01.250Z,95.83
2019-03-12T00:12:41.837Z,99.03
2019-03-12T00:15:22.923Z,87.17
2019-03-12T00:18:03.269Z,86.43
2019-03-12T00:20:43.903Z,91.40
2019-03-12T00:23:24.790Z,95.83
2019-03-12T00:26:05.495Z,93.73
2019-03-12T00:28:46.967Z,90.93
2019-03-12T00:31:27.376Z,88.70
2019-03-12T00:34:08.550Z,91.93
2019-03-12T00:36:49.844Z,95.57
2019-03-12T00:39:30.603Z,92.47
2019-03-12T00:42:11.617Z,96.23
2019-03-12T00:44:52.775Z,98.83
2019-03-12T00:47:33.714Z,90.43
2019-03-12T00:50:14.952Z,93.20
2019-03-12T00:52:55.598Z,95.53
2019-03-12T00:55:36.107Z,84.50
2019-03-12T00:58:17.253Z,102.60
2019-03-12T01:00:58.206Z,107.87
2019-03-12T01:03:39.165Z,96.93
2019-03-12T01:06:20.716Z,95.37
2019-03-12T01:09:01.956Z,88.13
2019-03-12T01:11:43.037Z,81.37
2019-03-12T01:14:23.929Z,90.97
2019-03-12T01:17:05.195Z,91.03
2019-03-12T01:19:45.860Z,83.57
2019-03-12T01:22:26.586Z,86.73
2019-03-12T01:25:07.334Z,83.43
2019-03-12T01:27:48.709Z,91.63
2019-03-12T01:30:30.021Z,95.80
2019-03-12T01:33:10.966Z,92.93
2019-03-12T01:35:52.548Z,98.37
2019-03-12T01:38:33.525Z,91.23
2019-03-12T01:41:14.825Z,91.63
2019-03-12T01:43:55.750Z,92.77
2019-03-12T01:46:36.703Z,88.00
2019-03-12T01:49:17.694Z,89.83
2019-03-12T01:51:58.648Z,91.87
2019-03-12T01:54:39.015Z,89.10
2019-03-12T01:57:20.568Z,86.63
2019-03-12T02:00:01.559Z,88.70
2019-03-12T02:02:44.386Z,86.70
2019-03-12T02:05:25.160Z,88.03
2019-03-12T02:08:06.128Z,85.67
2019-03-12T02:10:46.998Z,78.53
2019-03-12T02:13:28.284Z,77.87
2019-03-12T02:16:09.180Z,78.63
2019-03-12T02:18:50.012Z,77.93
2019-03-12T02:21:31.121Z,79.00
2019-03-12T02:24:12.089Z,75.10
2019-03-12T02:26:53.380Z,74.83
2019-03-12T02:29:34.309Z,74.33
2019-03-12T02:32:15.609Z,75.03
2019-03-12T02:34:56.705Z,72.60
2019-03-12T02:37:38.178Z,66.03
2019-03-12T02:40:19.749Z,74.77
2019-03-12T02:43:01.028Z,73.17
2019-03-12T02:45:42.339Z,70.47
2019-03-12T02:48:23.612Z,79.37
2019-03-12T02:51:04.496Z,74.60
2019-03-12T02:53:45.436Z,70.53
2019-03-12T02:56:27.160Z,69.97
2019-03-12T02:59:08.080Z,72.43
2019-03-12T03:01:49.116Z,72.50
2019-03-12T03:04:30.459Z,70.40
2019-03-12T03:07:11.735Z,71.77
2019-03-12T03:09:53.528Z,74.13
2019-03-12T03:12:34.602Z,76.13
2019-03-12T03:15:15.750Z,73.07
2019-03-12T03:17:56.773Z,73.10
2019-03-12T03:20:38.169Z,68.90
2019-03-12T03:23:19.105Z,66.93
2019-03-12T03:25:59.999Z,71.43
2019-03-12T03:28:41.517Z,69.07
2019-03-12T03:31:22.826Z,68.17
2019-03-12T03:34:03.966Z,69.97
2019-03-12T03:36:44.638Z,69.93
2019-03-12T03:39:26.101Z,71.53
2019-03-12T03:42:07.106Z,69.57
2019-03-12T03:44:48.552Z,68.70
2019-03-12T03:47:29.138Z,68.10
2019-03-12T03:50:09.902Z,69.60
2019-03-12T03:52:51.134Z,71.30
2019-03-12T03:55:32.407Z,70.47
2019-03-12T03:58:13.047Z,67.93
2019-03-12T04:00:54.696Z,68.63
2019-03-12T04:03:35.678Z,69.87
2019-03-12T04:06:16.220Z,61.50
2019-03-12T04:08:56.999Z,63.50
2019-03-12T04:11:38.577Z,68.73
2019-03-12T04:14:20.369Z,62.93
2019-03-12T04:19:45.848Z,68.47
2019-03-12T04:22:27.115Z,67.67
2019-03-12T04:25:08.186Z,65.93
2019-03-12T04:27:49.043Z,66.13
2019-03-12T04:30:30.335Z,65.97
2019-03-12T04:33:11.381Z,66.03
2019-03-12T04:35:52.274Z,65.10
2019-03-12T04:38:33.508Z,66.27
2019-03-12T04:41:14.920Z,67.37
2019-03-12T04:43:56.110Z,62.77
2019-03-12T04:52:18.476Z,67.60
2019-03-12T04:54:59.537Z,68.80
2019-03-12T04:57:41.447Z,67.70
2019-03-12T05:00:22.201Z,63.03
2019-03-12T05:03:02.950Z,63.50
2019-03-12T05:05:43.706Z,67.70
2019-03-12T05:08:24.838Z,68.33
2019-03-12T05:11:05.864Z,66.97
2019-03-12T05:13:47.046Z,66.63
2019-03-12T05:16:27.741Z,67.80
2019-03-12T05:19:08.509Z,67.43
2019-03-12T05:21:49.540Z,65.50
2019-03-12T05:24:30.324Z,65.08
2019-03-12T05:27:10.722Z,63.00
2019-03-12T05:29:51.686Z,62.20
2019-03-12T05:32:32.580Z,63.00
2019-03-12T05:35:13.844Z,63.78
2019-03-12T05:37:54.627Z,66.90
2019-03-12T05:40:35.055Z,63.40
2019-03-12T05:43:15.030Z,62.53
2019-03-12T05:45:55.764Z,62.53
2019-03-12T05:48:35.929Z,63.80
2019-03-12T05:51:16.686Z,64.60
2019-03-12T05:53:57.840Z,63.90
2019-03-12T05:56:39.291Z,63.63
2019-03-12T05:59:21.402Z,62.20
2019-03-12T06:02:02.200Z,65.20
2019-03-12T06:04:42.921Z,61.03
2019-03-12T06:07:24.507Z,60.83
2019-03-12T06:10:05.066Z,61.00
2019-03-12T06:12:45.457Z,63.20
2019-03-12T06:15:25.704Z,59.37
2019-03-12T06:18:10.155Z,61.70
2019-03-12T06:20:50.937Z,60.20
2019-03-12T06:23:34.596Z,60.13
2019-03-12T06:26:15.373Z,54.80
2019-03-12T06:28:57.434Z,53.87
2019-03-12T06:31:37.961Z,55.20
2019-03-12T06:34:19.062Z,57.23
2019-03-12T06:37:02.160Z,56.55
2019-03-12T06:39:43.203Z,56.60
2019-03-12T06:42:23.655Z,55.65
2019-03-12T06:45:04.181Z,57.65
2019-03-12T06:47:46.583Z,55.40
2019-03-12T06:50:28.425Z,57.38
2019-03-12T06:53:08.633Z,58.83
2019-03-12T06:55:49.219Z,58.03
2019-03-12T06:58:29.709Z,53.77
2019-03-12T07:01:10.031Z,55.67
2019-03-12T07:03:52.013Z,57.70
2019-03-12T07:06:33.469Z,60.27
2019-03-12T07:09:14.871Z,55.40
2019-03-12T07:11:55.254Z,55.57
2019-03-12T07:14:35.355Z,57.62
2019-03-12T07:17:15.327Z,54.97
2019-03-12T07:19:55.808Z,55.23
2019-03-12T07:22:35.804Z,57.10
2019-03-12T07:25:16.127Z,57.53
2019-03-12T07:27:57.527Z,53.63
2019-03-12T07:30:39.403Z,50.38
2019-03-12T07:33:20.058Z,54.77
2019-03-12T07:36:00.833Z,54.88
2019-03-12T07:38:41.226Z,56.55
2019-03-12T07:46:28.381Z,58.65
2019-03-12T07:49:08.796Z,56.27
2019-03-12T07:51:48.935Z,57.40
2019-03-12T07:54:32.803Z,58.27
2019-03-12T07:57:13.271Z,56.93
2019-03-12T08:02:38.389Z,58.70
2019-03-12T08:05:18.796Z,60.58
2019-03-12T08:07:59.706Z,58.80
2019-03-12T08:10:40.268Z,61.10
2019-03-12T08:13:20.917Z,58.27
2019-03-12T08:16:00.967Z,62.27
2019-03-12T08:18:41.329Z,62.73
2019-03-12T08:21:22.639Z,62.77
2019-03-12T08:24:03.114Z,62.70
2019-03-12T08:26:43.558Z,61.63
2019-03-12T08:29:24.426Z,62.13
2019-03-12T08:32:05.245Z,60.70
2019-03-12T08:34:46.332Z,59.23
2019-03-12T08:37:26.674Z,61.13
2019-03-12T08:40:06.685Z,57.83
2019-03-12T08:42:54.478Z,60.20
2019-03-12T08:45:28.381Z,57.37
2019-03-12T08:48:08.759Z,60.27
2019-03-12T08:50:48.895Z,60.17
2019-03-12T08:53:28.966Z,59.33
2019-03-12T08:56:10.401Z,61.23
2019-03-12T08:58:52.607Z,59.43
2019-03-12T09:01:35.756Z,57.13
2019-03-12T09:04:18.398Z,55.33
2019-03-12T09:07:05.049Z,56.70
2019-03-12T09:09:45.511Z,56.77
2019-03-12T09:12:26.238Z,54.30
2019-03-12T09:17:54.898Z,55.03
2019-03-12T09:20:34.935Z,53.50
2019-03-12T09:23:15.079Z,53.20
2019-03-12T09:25:55.232Z,49.57
2019-03-12T09:28:36.212Z,47.73
2019-03-12T09:31:16.350Z,49.65
2019-03-12T09:33:56.602Z,49.60
2019-03-12T09:36:37.098Z,47.77
2019-03-12T09:39:17.071Z,48.43
2019-03-12T09:41:57.071Z,48.53
2019-03-12T09:44:37.420Z,49.23
2019-03-12T09:47:17.265Z,50.67
2019-03-12T09:49:58.134Z,48.30
2019-03-12T09:52:38.932Z,45.63
2019-03-12T09:55:21.908Z,46.07
2019-03-12T09:58:02.957Z,43.95
2019-03-12T10:00:43.537Z,45.83
2019-03-12T10:03:23.475Z,44.97
2019-03-12T10:06:04.128Z,42.13
2019-03-12T10:08:44.200Z,41.58
2019-03-12T10:11:24.399Z,43.97
2019-03-12T10:14:04.627Z,46.43
2019-03-12T10:16:45.187Z,46.43
2019-03-12T10:19:26.083Z,49.40
2019-03-12T10:22:06.293Z,51.80
2019-03-12T10:24:47.024Z,50.30
2019-03-12T10:27:27.190Z,48.98
2019-03-12T10:30:07.235Z,52.97
2019-03-12T10:32:47.862Z,51.30
2019-03-12T10:35:28.117Z,50.80
2019-03-12T10:38:11.867Z,52.73
2019-03-12T10:40:54.348Z,53.77
2019-03-12T10:43:36.423Z,55.57
2019-03-12T10:46:26.421Z,55.90
2019-03-12T10:48:58.208Z,56.25
2019-03-12T10:51:28.765Z,58.13
2019-03-12T10:53:59.511Z,57.03
2019-03-12T10:56:29.861Z,54.03
2019-03-12T10:59:02.090Z,55.63
2019-03-12T11:01:32.341Z,55.47
2019-03-12T11:04:02.595Z,56.43
2019-03-12T11:06:32.741Z,56.63
2019-03-12T11:09:06.680Z,55.63
2019-03-12T11:11:36.269Z,54.87
2019-03-12T11:14:06.166Z,55.53
2019-03-12T11:16:35.526Z,52.87
2019-03-12T11:19:04.519Z,54.80
2019-03-12T11:21:34.399Z,54.43
2019-03-12T11:24:04.435Z,54.23
2019-03-12T11:26:34.273Z,54.37
2019-03-12T11:29:03.628Z,54.27
2019-03-12T11:31:32.994Z,55.70
2019-03-12T11:34:02.609Z,53.97
2019-03-12T11:36:32.190Z,52.23
2019-03-12T11:39:01.962Z,52.97
2019-03-12T11:41:31.783Z,51.67
2019-03-12T11:44:01.845Z,52.73
2019-03-12T11:46:41.823Z,52.97
2019-03-12T11:49:02.009Z,51.20
2019-03-12T11:51:32.174Z,52.27
2019-03-12T11:54:02.517Z,57.23
2019-03-12T11:56:32.613Z,53.93
2019-03-12T11:59:05.019Z,57.80
2019-03-12T12:01:35.786Z,57.77
2019-03-12T12:04:06.035Z,56.57
2019-03-12T12:06:36.457Z,58.03
2019-03-12T12:09:06.513Z,59.73
2019-03-12T12:11:36.906Z,61.47
2019-03-12T12:14:07.304Z,63.17
2019-03-12T12:16:37.367Z,62.70
2019-03-12T12:19:09.696Z,63.67
2019-03-12T12:21:39.867Z,70.27
2019-03-12T12:24:09.759Z,64.43
2019-03-12T12:26:39.705Z,76.43
2019-03-12T12:29:09.988Z,64.67
2019-03-12T12:31:47.175Z,64.07
2019-03-12T12:34:21.025Z,68.77
2019-03-12T12:36:55.149Z,67.93
2019-03-12T12:39:30.747Z,69.47
2019-03-12T12:42:04.515Z,69.60
2019-03-12T12:44:39.439Z,81.03
2019-03-12T12:47:17.121Z,86.40
2019-03-12T12:49:50.864Z,97.50
2019-03-12T12:52:20.327Z,97.13
2019-03-12T12:54:49.377Z,95.33
2019-03-12T12:58:00.641Z,98.43
2019-03-12T13:00:29.950Z,102.23
2019-03-12T13:02:59.069Z,100.73
2019-03-12T13:05:28.323Z,102.73
2019-03-12T13:10:36.025Z,92.37
2019-03-12T13:13:05.314Z,90.57
2019-03-12T13:15:34.831Z,88.97
2019-03-12T13:18:04.281Z,90.47
2019-03-12T13:20:34.046Z,86.60
2019-03-12T13:23:03.354Z,93.93
2019-03-12T13:25:32.876Z,91.67
2019-03-12T13:28:02.165Z,95.10
2019-03-12T13:30:31.445Z,97.53
2019-03-12T13:33:01.082Z,96.27
2019-03-12T13:35:30.477Z,101.27
2019-03-12T13:37:59.569Z,91.77
2019-03-12T13:40:28.919Z,83.93
2019-03-12T13:42:58.389Z,88.20
2019-03-12T13:45:28.020Z,82.67
2019-03-12T13:47:57.449Z,82.13
2019-03-12T13:50:26.510Z,82.53
2019-03-12T13:52:55.957Z,86.97
2019-03-12T13:55:25.513Z,93.83
2019-03-12T13:57:55.437Z,92.40
2019-03-12T14:00:25.549Z,95.23
2019-03-12T14:02:55.035Z,92.33
2019-03-12T14:05:24.527Z,94.27
2019-03-12T14:07:54.643Z,96.53
2019-03-12T14:10:23.965Z,101.90
2019-03-12T14:12:52.843Z,106.77
2019-03-12T14:15:22.319Z,100.77
2019-03-12T14:17:51.648Z,100.17
2019-03-12T14:20:21.190Z,101.20
2019-03-12T14:22:50.659Z,104.30
2019-03-12T14:25:20.193Z,111.17
2019-03-12T14:27:49.677Z,117.30
2019-03-12T14:30:19.087Z,111.33
2019-03-12T14:32:48.485Z,112.63
2019-03-12T14:35:17.987Z,111.50
2019-03-12T14:37:47.719Z,103.63
2019-03-12T14:40:17.761Z,104.70
2019-03-12T14:42:46.904Z,105.07
2019-03-12T14:45:16.415Z,102.40
2019-03-12T14:47:45.717Z,102.47
2019-03-12T14:50:15.020Z,103.27
2019-03-12T14:52:44.521Z,109.13
2019-03-12T14:55:14.035Z,113.77
2019-03-12T14:57:43.742Z,105.93
2019-03-12T15:00:13.260Z,106.73
2019-03-12T15:02:42.737Z,108.70
2019-03-12T15:05:12.281Z,102.30
2019-03-12T15:07:42.298Z,108.20
2019-03-12T15:10:11.875Z,105.97
2019-03-12T15:12:41.795Z,100.57
2019-03-12T15:15:11.331Z,95.07
2019-03-12T15:17:41.343Z,92.63
2019-03-12T15:20:10.926Z,90.07
2019-03-12T15:22:40.541Z,91.60
2019-03-12T15:25:10.127Z,93.33
2019-03-12T15:27:39.652Z,96.70
2019-03-12T15:30:08.732Z,96.37
2019-03-12T15:32:38.070Z,97.00
2019-03-12T15:35:07.539Z,96.10
2019-03-12T15:37:37.299Z,98.60
2019-03-12T15:40:06.784Z,100.17
2019-03-12T15:42:36.641Z,104.53
2019-03-12T15:45:06.163Z,99.27
2019-03-12T15:47:38.727Z,94.50
2019-03-12T15:50:09.658Z,93.50
2019-03-12T16:07:52.556Z,79.10
2019-03-12T16:10:22.339Z,76.90
2019-03-12T16:12:51.633Z,75.63
2019-03-12T16:15:21.128Z,73.53
2019-03-12T16:17:50.869Z,66.93
2019-03-12T16:20:20.168Z,65.13
2019-03-12T16:22:49.671Z,67.50
2019-03-12T16:25:18.732Z,64.37
2019-03-12T16:27:47.977Z,62.50
2019-03-12T16:30:17.365Z,62.50
2019-03-12T16:32:47.943Z,61.33
2019-03-12T16:35:22.566Z,61.20
2019-03-12T16:37:54.664Z,60.40
2019-03-12T16:40:24.796Z,59.60
2019-03-12T16:42:54.079Z,60.20
2019-03-12T16:45:23.385Z,58.37
2019-03-12T16:47:57.096Z,57.87
2019-03-12T16:50:33.804Z,59.17
2019-03-12T16:53:05.520Z,60.17
2019-03-12T16:55:39.973Z,58.40
2019-03-12T16:58:11.288Z,57.40
2019-03-12T17:00:45.479Z,56.83
2019-03-12T17:03:23.397Z,55.87
2019-03-12T17:05:58.730Z,56.67
2019-03-12T17:08:34.166Z,57.77
2019-03-12T17:11:10.396Z,57.43
2019-03-12T17:13:47.699Z,53.87
2019-03-12T17:16:23.724Z,54.93
2019-03-12T17:18:56.943Z,56.03
2019-03-12T17:21:32.744Z,56.93
2019-03-12T17:24:10.732Z,54.80
2019-03-12T17:26:47.983Z,55.50
2019-03-12T17:29:27.581Z,54.43
2019-03-12T17:34:41.711Z,53.70
2019-03-12T17:37:17.060Z,54.13
2019-03-12T17:39:50.058Z,53.40
2019-03-12T17:42:21.021Z,52.93
2019-03-12T17:44:51.604Z,53.80
2019-03-12T17:47:21.824Z,50.80
2019-03-12T17:49:51.768Z,50.03
2019-03-12T17:52:21.819Z,49.20
2019-03-12T17:54:51.512Z,49.77
2019-03-12T17:57:22.476Z,47.47
2019-03-12T17:59:52.233Z,47.00
2019-03-12T18:02:22.617Z,46.00
2019-03-12T18:04:53.026Z,45.47
2019-03-12T18:07:23.421Z,46.47
2019-03-12T18:09:53.233Z,45.53
2019-03-12T18:12:23.906Z,47.03
2019-03-12T18:14:53.862Z,47.07
2019-03-12T18:17:24.384Z,46.43
2019-03-12T18:19:54.474Z,46.33
2019-03-12T18:22:25.248Z,45.13
2019-03-12T18:24:55.032Z,45.87
2019-03-12T18:27:25.020Z,44.20
2019-03-12T18:29:54.784Z,44.53
2019-03-12T18:32:25.497Z,42.80
2019-03-12T18:34:55.396Z,43.70
2019-03-12T18:37:26.355Z,43.00
2019-03-12T18:39:57.017Z,44.37
2019-03-12T18:42:27.372Z,43.17
2019-03-12T18:44:57.576Z,44.27
2019-03-12T18:47:27.340Z,42.27
2019-03-12T18:49:57.016Z,43.47
2019-03-12T18:52:27.480Z,44.63
2019-03-12T18:54:57.479Z,43.77
2019-03-12T18:57:27.258Z,42.73
2019-03-12T18:59:57.415Z,44.17
2019-03-12T19:02:27.441Z,43.60
2019-03-12T19:04:57.816Z,43.97
2019-03-12T19:07:27.635Z,43.00
2019-03-12T19:09:58.208Z,45.27
2019-03-12T19:12:28.054Z,46.37
2019-03-12T19:14:57.414Z,45.73
2019-03-12T19:17:27.357Z,44.50
2019-03-12T19:19:57.408Z,44.37
2019-03-12T19:22:27.486Z,45.93
2019-03-12T19:24:57.703Z,46.27
2019-03-12T19:27:28.220Z,45.50
2019-03-12T19:29:58.298Z,44.50
2019-03-12T19:32:28.757Z,43.53
2019-03-12T19:34:58.957Z,44.03
2019-03-12T19:37:29.501Z,43.97
2019-03-12T19:39:59.971Z,42.63
2019-03-12T19:42:30.296Z,42.70
2019-03-12T19:44:59.663Z,40.93
2019-03-12T19:47:30.455Z,41.90
2019-03-12T19:50:00.926Z,41.87
2019-03-12T19:52:30.939Z,39.27
2019-03-12T19:55:01.535Z,39.77
2019-03-12T19:57:31.421Z,39.37
2019-03-12T20:00:01.220Z,40.33
2019-03-12T20:02:30.726Z,38.77
2019-03-12T20:05:00.536Z,39.23
2019-03-12T20:07:30.798Z,37.57
2019-03-12T20:10:00.815Z,38.10
2019-03-12T20:12:31.128Z,37.87
2019-03-12T20:15:01.333Z,37.00
2019-03-12T20:17:31.422Z,37.07
2019-03-12T20:20:01.498Z,37.27
2019-03-12T20:22:31.325Z,35.53
2019-03-12T20:25:01.711Z,35.83
2019-03-12T20:27:32.388Z,35.07
2019-03-12T20:30:02.139Z,35.33
2019-03-12T20:32:31.733Z,36.00
2019-03-12T20:35:05.000Z,33.70
2019-03-12T20:37:33.130Z,35.60
2019-03-12T20:40:02.534Z,35.63
2019-03-12T20:42:32.871Z,34.07
2019-03-12T20:45:02.616Z,34.13
2019-03-12T20:47:33.372Z,33.17
2019-03-12T20:50:03.487Z,33.80
2019-03-12T20:52:33.311Z,32.27
2019-03-12T20:55:03.176Z,33.37
2019-03-12T20:57:33.377Z,33.67
2019-03-12T21:00:03.059Z,31.07
2019-03-12T21:02:33.234Z,31.83
2019-03-12T21:05:03.335Z,30.83
2019-03-12T21:07:33.126Z,31.40
2019-03-12T21:10:03.164Z,30.07
2019-03-12T21:12:33.187Z,30.90
2019-03-12T21:15:03.260Z,30.37
2019-03-12T21:17:33.083Z,30.70
2019-03-12T21:20:03.110Z,29.73
2019-03-12T21:22:33.853Z,31.00
2019-03-12T21:25:04.160Z,31.00
2019-03-12T21:27:33.985Z,30.57
2019-03-12T21:30:04.060Z,30.17
2019-03-12T21:32:34.222Z,29.07
2019-03-12T21:35:04.721Z,30.47
2019-03-12T21:37:35.267Z,30.10
2019-03-12T21:40:05.308Z,29.83
2019-03-12T21:42:35.482Z,29.73
2019-03-12T21:45:06.151Z,30.53
2019-03-12T21:47:35.660Z,28.60
2019-03-12T21:50:05.377Z,29.97
2019-03-12T21:52:35.412Z,30.50
2019-03-12T21:55:05.251Z,30.83
2019-03-12T21:57:35.264Z,29.30
2019-03-12T22:00:05.021Z,29.43
2019-03-12T22:02:35.450Z,28.63
2019-03-12T22:05:05.820Z,30.67
2019-03-12T22:07:36.608Z,29.30
2019-03-12T22:10:06.942Z,29.70
2019-03-12T22:12:36.705Z,31.80
2019-03-12T22:15:06.877Z,31.20
2019-03-12T22:17:36.543Z,31.67
2019-03-12T22:20:07.014Z,31.97
2019-03-12T22:22:36.822Z,32.67
2019-03-12T22:25:06.784Z,32.27
2019-03-12T22:27:36.654Z,32.73
2019-03-12T22:30:06.346Z,32.10
2019-03-12T22:32:36.699Z,32.00
2019-03-12T22:35:06.862Z,32.40
2019-03-12T22:37:36.614Z,32.17
2019-03-12T22:40:06.071Z,31.10
2019-03-12T22:42:36.436Z,31.90
2019-03-12T22:45:06.505Z,32.70
2019-03-12T22:47:36.628Z,32.30
2019-03-12T22:50:06.297Z,33.67
2019-03-12T22:52:36.374Z,32.17
2019-03-12T22:55:06.447Z,31.57
2019-03-12T22:57:35.809Z,31.43
2019-03-12T23:00:06.036Z,32.40
2019-03-12T23:02:36.005Z,33.80
2019-03-12T23:05:05.890Z,31.53
2019-03-12T23:07:35.630Z,31.53
2019-03-12T23:10:05.332Z,33.40
2019-03-12T23:12:35.936Z,31.90
2019-03-12T23:15:05.555Z,31.97
2019-03-12T23:17:35.318Z,32.87
2019-03-12T23:20:05.026Z,31.67
2019-03-12T23:22:35.322Z,31.50
2019-03-12T23:25:05.506Z,31.53
2019-03-12T23:27:35.270Z,30.67
2019-03-12T23:30:04.752Z,31.00
2019-03-12T23:32:34.837Z,31.20
2019-03-12T23:35:04.868Z,30.23
2019-03-12T23:37:34.357Z,32.17
2019-03-12T23:40:04.059Z,30.93
2019-03-12T23:42:34.155Z,31.57
2019-03-12T23:45:04.544Z,31.47
2019-03-12T23:47:34.654Z,30.83
2019-03-12T23:50:04.606Z,31.90
2019-03-12T23:52:34.464Z,30.57
2019-03-12T23:55:04.568Z,33.93
